Time;durP1;ratioP1;P1;durP2;ratioP2;P2;SDS_P1;SDS_P2;PMS_P1;PMS_P2;Temp;Humidity;BMP_temperature;BMP_pressure;BME280_temperature;BME280_humidity;BME280_pressure;Samples;Min_cycle;Max_cycle;Signal;HPM_P1;HPM_P2
2021/04/17 00:02:14;;;;;;;12.77;5.30;;;3.50;64.10;;;;;;5040495;28;20102;-69
2021/04/17 00:04:39;;;;;;;11.70;5.03;;;3.50;64.30;;;;;;5039488;28;20120;-70
2021/04/17 00:07:09;;;;;;;11.07;5.10;;;3.50;64.60;;;;;;5039745;28;20527;-66
2021/04/17 00:09:35;;;;;;;10.85;5.15;;;3.40;64.80;;;;;;5055869;28;20037;-65
2021/04/17 00:12:07;;;;;;;13.00;4.83;;;3.40;65.00;;;;;;5057045;28;20036;-66
2021/04/17 00:14:35;;;;;;;12.43;5.07;;;3.40;65.30;;;;;;5038175;28;20044;-65
2021/04/17 00:17:02;;;;;;;10.33;4.97;;;3.40;65.60;;;;;;5053845;28;20033;-65
2021/04/17 00:19:28;;;;;;;10.47;4.97;;;3.40;65.90;;;;;;5036533;28;20045;-65
2021/04/17 00:21:54;;;;;;;11.67;4.80;;;3.40;66.10;;;;;;5035586;28;20094;-65
2021/04/17 00:24:20;;;;;;;10.80;5.00;;;3.50;66.40;;;;;;5019677;28;20096;-65
2021/04/17 00:26:45;;;;;;;12.57;5.00;;;3.50;66.60;;;;;;5035991;28;20029;-62
2021/04/17 00:29:11;;;;;;;11.50;5.10;;;3.50;66.80;;;;;;5017632;28;20033;-62
2021/04/17 00:31:38;;;;;;;11.67;4.93;;;3.50;67.00;;;;;;5036012;28;20416;-62
2021/04/17 00:34:04;;;;;;;11.03;4.73;;;3.60;67.20;;;;;;5002523;28;20116;-62
2021/04/17 00:36:30;;;;;;;14.93;4.37;;;3.70;67.40;;;;;;5035837;28;20094;-62
2021/04/17 00:38:56;;;;;;;12.20;4.77;;;3.70;67.40;;;;;;5053349;28;20481;-62
2021/04/17 00:41:22;;;;;;;14.13;4.90;;;3.70;67.60;;;;;;5035315;28;20033;-63
2021/04/17 00:43:48;;;;;;;10.93;4.30;;;3.80;67.80;;;;;;5035748;28;20059;-62
2021/04/17 00:46:14;;;;;;;10.17;4.47;;;3.90;67.90;;;;;;5019362;28;20505;-61
2021/04/17 00:48:42;;;;;;;11.23;4.63;;;4.00;68.00;;;;;;5035719;28;20040;-63
2021/04/17 00:51:09;;;;;;;12.37;4.47;;;4.00;67.90;;;;;;5037675;28;20037;-63
2021/04/17 00:53:35;;;;;;;10.67;4.10;;;4.10;67.80;;;;;;5037218;28;20067;-63
2021/04/17 00:56:08;;;;;;;10.70;4.50;;;4.10;67.60;;;;;;5037131;28;20032;-63
2021/04/17 00:58:35;;;;;;;10.73;4.53;;;4.30;67.60;;;;;;5036962;28;20060;-63
2021/04/17 01:01:02;;;;;;;10.03;4.47;;;4.20;67.30;;;;;;5055376;28;20056;-62
2021/04/17 01:03:55;;;;;;;11.63;4.17;;;4.20;67.20;;;;;;5055434;28;20045;-62
2021/04/17 01:06:43;;;;;;;9.33;3.77;;;4.20;67.10;;;;;;5054988;28;20048;-62
2021/04/17 01:09:32;;;;;;;9.20;4.57;;;4.20;67.20;;;;;;5054943;28;20040;-63
2021/04/17 01:12:02;;;;;;;12.00;4.60;;;4.20;67.20;;;;;;5054711;28;20029;-61
2021/04/17 01:14:28;;;;;;;9.63;4.50;;;4.20;67.00;;;;;;5021276;28;20041;-62
2021/04/17 01:16:56;;;;;;;9.37;3.83;;;4.20;66.70;;;;;;5053883;28;20268;-62
2021/04/17 01:19:51;;;;;;;9.03;3.70;;;4.20;66.40;;;;;;5035401;28;20100;-63
2021/04/17 01:22:21;;;;;;;11.13;4.10;;;4.10;66.30;;;;;;5014224;28;20037;-63
2021/04/17 01:24:59;;;;;;;10.23;4.22;;;4.00;66.20;;;;;;5035167;28;20182;-62
2021/04/17 01:27:25;;;;;;;8.37;3.83;;;3.90;66.40;;;;;;5052285;28;20044;-62
2021/04/17 01:29:51;;;;;;;12.47;4.33;;;3.90;66.60;;;;;;5034902;28;20036;-67
2021/04/17 01:32:17;;;;;;;13.53;3.73;;;3.80;66.70;;;;;;5034213;28;20040;-65
2021/04/17 01:34:44;;;;;;;7.90;4.13;;;3.80;66.80;;;;;;5052827;28;20043;-66
2021/04/17 01:37:10;;;;;;;12.07;4.90;;;3.80;67.10;;;;;;5034383;28;20033;-65
2021/04/17 01:39:38;;;;;;;9.60;4.27;;;3.80;67.40;;;;;;5051903;28;20091;-65
2021/04/17 01:42:08;;;;;;;11.13;4.33;;;3.80;67.90;;;;;;5052376;28;20120;-65
2021/04/17 01:44:39;;;;;;;9.60;4.53;;;3.80;68.40;;;;;;5052003;28;20037;-65
2021/04/17 01:47:11;;;;;;;10.80;4.23;;;3.80;68.80;;;;;;5034250;28;20083;-66
2021/04/17 01:49:47;;;;;;;13.23;4.47;;;3.90;69.20;;;;;;5033990;28;20041;-66
2021/04/17 01:52:18;;;;;;;11.30;4.20;;;4.00;69.40;;;;;;5034940;28;20485;-65
2021/04/17 01:54:47;;;;;;;10.02;4.15;;;4.10;69.40;;;;;;5051913;28;20041;-65
2021/04/17 01:57:17;;;;;;;8.33;3.70;;;4.10;69.50;;;;;;5051700;28;20657;-66
2021/04/17 01:59:42;;;;;;;9.23;4.03;;;4.20;69.50;;;;;;5034180;28;20048;-65
2021/04/17 02:02:08;;;;;;;10.70;3.60;;;4.30;69.60;;;;;;5051629;28;20410;-65
2021/04/17 02:04:35;;;;;;;9.20;3.90;;;4.40;69.70;;;;;;5051849;28;20047;-65
2021/04/17 02:07:01;;;;;;;8.80;4.23;;;4.40;69.60;;;;;;5051158;28;20544;-66
2021/04/17 02:09:27;;;;;;;8.20;3.60;;;4.50;69.60;;;;;;5017503;28;20068;-66
2021/04/17 02:11:53;;;;;;;7.83;3.77;;;4.50;69.60;;;;;;5051907;28;20068;-66
2021/04/17 02:14:19;;;;;;;8.30;3.27;;;4.60;69.60;;;;;;5033459;28;20049;-65
2021/04/17 02:17:02;;;;;;;10.40;3.77;;;4.60;69.60;;;;;;5051786;28;20041;-65
2021/04/17 02:20:04;;;;;;;8.33;3.67;;;4.60;69.70;;;;;;5051479;28;20102;-65
2021/04/17 02:22:31;;;;;;;10.27;3.73;;;4.70;69.80;;;;;;5033512;28;20095;-66
2021/04/17 02:24:59;;;;;;;9.90;4.47;;;4.80;69.80;;;;;;5051669;28;20484;-65
2021/04/17 02:27:25;;;;;;;8.80;3.60;;;4.80;69.70;;;;;;5032825;28;20041;-66
2021/04/17 02:29:53;;;;;;;9.87;3.90;;;4.80;69.60;;;;;;5051591;28;20511;-66
2021/04/17 02:32:18;;;;;;;9.80;3.30;;;4.80;69.70;;;;;;5033677;28;20033;-66
2021/04/17 02:34:44;;;;;;;10.10;3.33;;;4.80;69.60;;;;;;5033412;28;20071;-68
2021/04/17 02:37:11;;;;;;;8.47;3.43;;;4.80;69.80;;;;;;5051104;28;20044;-66
2021/04/17 02:39:37;;;;;;;8.03;3.33;;;4.80;69.90;;;;;;5017091;28;20041;-66
2021/04/17 02:42:03;;;;;;;9.73;3.57;;;4.80;70.10;;;;;;5016743;28;20515;-66
2021/04/17 02:44:29;;;;;;;8.63;3.17;;;4.90;70.20;;;;;;5051118;28;20090;-66
2021/04/17 02:46:54;;;;;;;9.43;3.50;;;4.90;70.20;;;;;;5016058;28;20120;-67
2021/04/17 02:49:20;;;;;;;8.83;3.10;;;5.00;70.20;;;;;;5033522;28;20033;-65
2021/04/17 02:51:46;;;;;;;10.50;3.30;;;5.00;70.20;;;;;;5051142;28;20443;-65
2021/04/17 02:54:11;;;;;;;9.80;3.90;;;5.00;70.20;;;;;;5050579;28;20040;-65
2021/04/17 02:56:37;;;;;;;7.03;3.00;;;5.10;70.10;;;;;;5051273;28;20037;-65
2021/04/17 02:59:03;;;;;;;9.57;3.13;;;5.10;69.90;;;;;;5051155;28;20052;-66
2021/04/17 03:01:29;;;;;;;6.93;2.80;;;5.10;69.90;;;;;;5051690;28;20029;-66
2021/04/17 03:03:54;;;;;;;7.70;2.73;;;5.10;69.80;;;;;;5034145;28;20037;-65
2021/04/17 03:06:20;;;;;;;9.90;2.90;;;5.10;69.80;;;;;;5050752;28;20067;-65
2021/04/17 03:08:46;;;;;;;8.73;3.30;;;5.20;69.70;;;;;;5033173;28;20052;-65
2021/04/17 03:11:12;;;;;;;10.73;3.10;;;5.10;69.30;;;;;;5051253;28;20068;-66
2021/04/17 03:13:38;;;;;;;7.40;3.00;;;5.10;69.20;;;;;;5033218;28;20159;-63
2021/04/17 03:16:03;;;;;;;8.23;3.10;;;5.10;69.00;;;;;;5050995;28;20437;-63
2021/04/17 03:18:29;;;;;;;7.20;2.73;;;5.10;68.80;;;;;;5032310;28;20082;-63
2021/04/17 03:20:55;;;;;;;9.17;2.97;;;5.10;68.60;;;;;;5050745;28;20040;-63
2021/04/17 03:23:20;;;;;;;8.23;2.77;;;5.00;68.30;;;;;;5050758;28;20047;-63
2021/04/17 03:25:46;;;;;;;9.57;3.37;;;4.90;67.80;;;;;;5050316;28;20037;-63
2021/04/17 03:28:12;;;;;;;9.67;3.00;;;4.80;67.60;;;;;;5050758;28;20044;-63
2021/04/17 03:30:38;;;;;;;8.53;2.90;;;4.70;67.50;;;;;;5050134;28;20037;-64
2021/04/17 03:33:04;;;;;;;8.47;2.87;;;4.60;67.40;;;;;;5050809;28;20041;-63
2021/04/17 03:35:31;;;;;;;7.67;2.63;;;4.60;67.50;;;;;;5050713;28;20041;-63
2021/04/17 03:37:57;;;;;;;10.33;2.63;;;4.40;67.60;;;;;;5050132;28;20045;-63
2021/04/17 03:40:23;;;;;;;11.10;3.00;;;4.40;67.70;;;;;;5032694;28;20128;-63
2021/04/17 03:42:49;;;;;;;12.53;3.33;;;4.20;67.80;;;;;;5032496;28;20121;-63
2021/04/17 03:45:16;;;;;;;8.03;3.23;;;4.20;67.90;;;;;;5032757;28;20045;-63
2021/04/17 03:47:42;;;;;;;8.80;2.73;;;4.10;67.80;;;;;;5050354;28;20041;-63
2021/04/17 03:50:09;;;;;;;8.70;2.90;;;4.10;67.90;;;;;;5050085;28;20098;-63
2021/04/17 03:52:36;;;;;;;8.67;2.90;;;4.00;67.90;;;;;;5050605;28;20052;-63
2021/04/17 03:55:05;;;;;;;8.50;2.60;;;4.00;68.10;;;;;;5032478;28;20029;-63
2021/04/17 03:57:30;;;;;;;7.97;2.97;;;4.00;68.20;;;;;;5016354;28;20119;-63
2021/04/17 03:59:56;;;;;;;8.77;3.10;;;4.00;68.30;;;;;;5050350;28;20033;-63
2021/04/17 04:02:22;;;;;;;8.03;3.20;;;4.00;68.30;;;;;;5015168;28;20041;-63
2021/04/17 04:04:47;;;;;;;7.97;3.17;;;3.90;68.30;;;;;;5034209;28;20028;-63
2021/04/17 04:07:13;;;;;;;7.17;2.83;;;3.90;68.50;;;;;;5036014;28;20413;-63
2021/04/17 04:09:39;;;;;;;7.93;3.13;;;3.80;68.80;;;;;;5035932;28;20053;-63
2021/04/17 04:12:06;;;;;;;8.77;3.53;;;3.80;69.10;;;;;;5019848;28;20423;-63
2021/04/17 04:14:32;;;;;;;11.13;3.13;;;3.80;69.40;;;;;;5053559;28;20044;-63
2021/04/17 04:16:57;;;;;;;9.87;3.40;;;3.80;69.70;;;;;;5035943;28;20037;-63
2021/04/17 04:19:23;;;;;;;8.63;3.00;;;3.80;70.00;;;;;;5053934;28;20118;-63
2021/04/17 04:21:49;;;;;;;6.77;3.00;;;3.90;70.40;;;;;;5053442;28;20044;-63
2021/04/17 04:24:14;;;;;;;9.90;3.23;;;3.90;70.70;;;;;;5053796;28;20040;-62
2021/04/17 04:26:40;;;;;;;7.37;3.07;;;4.00;70.90;;;;;;5035504;28;20033;-62
2021/04/17 04:29:06;;;;;;;8.10;3.10;;;4.10;71.10;;;;;;5053557;28;20127;-62
2021/04/17 04:31:32;;;;;;;7.03;2.90;;;4.20;71.10;;;;;;5019034;28;20045;-62
2021/04/17 04:33:57;;;;;;;10.00;3.13;;;4.30;71.10;;;;;;5053489;28;20039;-63
2021/04/17 04:36:23;;;;;;;8.50;3.13;;;4.40;71.10;;;;;;5053568;28;20040;-63
2021/04/17 04:38:49;;;;;;;8.83;3.20;;;4.50;71.00;;;;;;5053250;28;20516;-62
2021/04/17 04:41:14;;;;;;;9.40;3.30;;;4.60;71.00;;;;;;5019263;28;20067;-62
2021/04/17 04:43:40;;;;;;;9.20;2.90;;;4.60;70.70;;;;;;5053702;28;20036;-63
2021/04/17 04:46:06;;;;;;;8.03;3.30;;;4.70;70.70;;;;;;5035182;28;20507;-62
2021/04/17 04:48:32;;;;;;;9.83;3.83;;;4.80;70.70;;;;;;5053053;28;20065;-62
2021/04/17 04:50:58;;;;;;;7.83;3.20;;;4.90;70.50;;;;;;5035534;28;20045;-62
2021/04/17 04:53:24;;;;;;;11.03;3.27;;;4.90;70.50;;;;;;5052780;28;20489;-62
2021/04/17 04:55:49;;;;;;;7.07;3.23;;;4.90;70.50;;;;;;5053356;28;20029;-62
2021/04/17 04:58:15;;;;;;;8.63;3.43;;;4.90;70.60;;;;;;5052571;28;20480;-62
2021/04/17 05:00:41;;;;;;;10.90;3.60;;;5.00;70.70;;;;;;5035394;28;20045;-62
2021/04/17 05:03:07;;;;;;;10.97;3.23;;;5.10;70.80;;;;;;5053714;28;20044;-63
2021/04/17 05:05:32;;;;;;;7.83;3.07;;;5.10;70.80;;;;;;5054961;28;20037;-63
2021/04/17 05:07:58;;;;;;;8.40;3.43;;;5.20;70.80;;;;;;5055618;28;20044;-66
2021/04/17 05:10:24;;;;;;;7.57;3.07;;;5.20;70.70;;;;;;5020496;28;20056;-65
2021/04/17 05:12:49;;;;;;;9.37;3.00;;;5.20;70.70;;;;;;5018323;28;20025;-65
2021/04/17 05:15:15;;;;;;;7.70;3.27;;;5.30;70.80;;;;;;5017994;28;20090;-66
2021/04/17 05:17:41;;;;;;;7.97;3.13;;;5.40;70.80;;;;;;5051996;28;20087;-65
2021/04/17 05:20:08;;;;;;;9.50;3.40;;;5.50;70.70;;;;;;5035015;28;20543;-66
2021/04/17 05:22:34;;;;;;;10.47;3.43;;;5.50;70.60;;;;;;5034905;28;20071;-66
2021/04/17 05:24:59;;;;;;;8.50;3.03;;;5.70;70.70;;;;;;5018027;28;20037;-65
2021/04/17 05:27:25;;;;;;;11.17;3.73;;;5.70;70.70;;;;;;5052284;28;20065;-65
2021/04/17 05:29:51;;;;;;;10.30;3.93;;;5.90;70.80;;;;;;5034056;28;20035;-66
2021/04/17 05:32:17;;;;;;;10.73;3.20;;;5.90;70.50;;;;;;5034346;28;20572;-66
2021/04/17 05:34:43;;;;;;;8.40;3.37;;;6.10;70.30;;;;;;5052580;28;20036;-66
2021/04/17 05:37:09;;;;;;;11.90;4.03;;;6.10;70.20;;;;;;5017330;28;20033;-65
2021/04/17 05:39:35;;;;;;;11.97;4.20;;;6.20;69.90;;;;;;5034505;28;20049;-66
2021/04/17 05:42:01;;;;;;;9.80;3.80;;;6.30;69.80;;;;;;5034789;28;20115;-66
2021/04/17 05:44:27;;;;;;;9.83;3.80;;;6.30;69.70;;;;;;5051837;28;20072;-65
2021/04/17 05:46:52;;;;;;;9.50;3.33;;;6.40;69.70;;;;;;5034340;28;20048;-66
2021/04/17 05:49:18;;;;;;;9.43;3.43;;;6.70;70.60;;;;;;5033823;28;20036;-65
2021/04/17 05:51:44;;;;;;;10.17;3.57;;;7.10;70.70;;;;;;5052266;28;20085;-66
2021/04/17 05:54:11;;;;;;;8.33;3.00;;;7.30;69.90;;;;;;5052113;28;20033;-65
2021/04/17 05:56:37;;;;;;;11.53;3.37;;;7.40;69.00;;;;;;5033717;28;20042;-66
2021/04/17 05:59:04;;;;;;;11.50;3.40;;;7.40;68.30;;;;;;5051918;28;20033;-65
2021/04/17 06:01:30;;;;;;;8.10;3.00;;;7.40;67.90;;;;;;5051537;28;20444;-66
2021/04/17 06:03:56;;;;;;;8.40;3.30;;;7.40;67.60;;;;;;5052116;28;20107;-66
2021/04/17 06:06:21;;;;;;;8.90;3.80;;;7.40;67.40;;;;;;5033849;28;20409;-65
2021/04/17 06:08:47;;;;;;;9.07;3.33;;;7.50;67.40;;;;;;5033304;28;20120;-65
2021/04/17 06:11:14;;;;;;;9.47;3.40;;;7.40;67.00;;;;;;5051935;28;20037;-65
2021/04/17 06:13:40;;;;;;;9.63;3.03;;;7.40;66.60;;;;;;5033998;28;20456;-65
2021/04/17 06:16:06;;;;;;;7.90;3.30;;;7.40;66.60;;;;;;5051242;28;20033;-65
2021/04/17 06:18:33;;;;;;;8.43;3.10;;;7.50;66.70;;;;;;5051400;28;20060;-66
2021/04/17 06:20:59;;;;;;;9.47;3.00;;;7.50;66.80;;;;;;5050446;28;20120;-65
2021/04/17 06:23:24;;;;;;;9.70;3.13;;;7.60;66.60;;;;;;5051631;28;20063;-65
2021/04/17 06:25:50;;;;;;;8.73;3.23;;;7.70;66.30;;;;;;5051361;28;20029;-65
2021/04/17 06:28:17;;;;;;;8.63;3.13;;;7.70;66.00;;;;;;5032193;28;20036;-64
2021/04/17 06:30:43;;;;;;;9.00;3.50;;;7.70;65.80;;;;;;5032994;28;20033;-65
2021/04/17 06:33:11;;;;;;;7.47;3.13;;;7.80;65.80;;;;;;5051494;28;20401;-65
2021/04/17 06:35:38;;;;;;;8.73;3.50;;;7.90;65.90;;;;;;5051094;28;20040;-65
2021/04/17 06:38:05;;;;;;;9.83;3.13;;;8.00;65.90;;;;;;5017160;28;20226;-65
2021/04/17 06:40:31;;;;;;;9.33;3.13;;;8.10;65.40;;;;;;5032992;28;20080;-65
2021/04/17 06:42:59;;;;;;;8.50;3.10;;;8.20;65.20;;;;;;5051407;28;20052;-65
2021/04/17 06:45:24;;;;;;;9.03;3.63;;;8.30;65.30;;;;;;5016690;28;20037;-65
2021/04/17 06:47:51;;;;;;;7.23;2.90;;;8.40;65.20;;;;;;5016663;28;20400;-65
2021/04/17 06:50:18;;;;;;;8.57;2.60;;;8.50;65.20;;;;;;5051151;28;20044;-65
2021/04/17 06:52:45;;;;;;;7.80;3.13;;;8.80;65.90;;;;;;5033403;28;20516;-65
2021/04/17 06:55:11;;;;;;;8.30;3.00;;;9.20;65.50;;;;;;5033467;28;20484;-63
2021/04/17 06:57:39;;;;;;;7.93;3.00;;;9.40;64.60;;;;;;5050657;28;20124;-64
2021/04/17 07:00:07;;;;;;;9.87;3.10;;;9.50;63.80;;;;;;5033344;28;20041;-65
2021/04/17 07:02:33;;;;;;;7.17;2.90;;;10.00;65.80;;;;;;5050796;28;20041;-65
2021/04/17 07:04:59;;;;;;;7.17;2.87;;;10.80;65.80;;;;;;5050423;28;20040;-65
2021/04/17 07:07:25;;;;;;;7.03;2.90;;;11.40;64.50;;;;;;5050416;28;20424;-65
2021/04/17 07:09:52;;;;;;;8.13;3.25;;;11.70;62.60;;;;;;5032853;28;20453;-65
2021/04/17 07:12:18;;;;;;;9.80;3.45;;;11.80;60.70;;;;;;5050865;28;20109;-64
2021/04/17 07:14:52;;;;;;;8.10;3.00;;;11.70;59.70;;;;;;5050890;28;20432;-63
2021/04/17 07:17:19;;;;;;;8.05;2.97;;;11.60;59.30;;;;;;5050129;28;20143;-64
2021/04/17 07:20:01;;;;;;;7.25;2.90;;;11.60;59.30;;;;;;5032802;28;20037;-63
2021/04/17 07:22:30;;;;;;;6.78;2.97;;;11.60;59.10;;;;;;5050662;28;20388;-65
2021/04/17 07:25:14;;;;;;;8.93;3.00;;;11.60;58.80;;;;;;5032646;28;20045;-66
2021/04/17 07:27:44;;;;;;;6.55;2.35;;;11.60;58.30;;;;;;5049428;28;20043;-66
2021/04/17 07:30:15;;;;;;;7.80;3.20;;;11.60;58.20;;;;;;5050778;28;20029;-65
2021/04/17 07:33:03;;;;;;;8.73;3.17;;;11.70;58.20;;;;;;5050317;28;20041;-65
2021/04/17 07:35:43;;;;;;;8.20;2.95;;;11.90;58.50;;;;;;5031777;28;20040;-66
2021/04/17 07:38:18;;;;;;;8.50;3.10;;;12.20;58.30;;;;;;5032715;28;20413;-66
2021/04/17 07:40:46;;;;;;;7.43;3.10;;;12.60;58.30;;;;;;5054039;28;20773;-66
2021/04/17 07:43:17;;;;;;;7.20;2.95;;;13.40;58.70;;;;;;5053819;28;20033;-66
2021/04/17 07:45:43;;;;;;;8.30;3.00;;;14.30;58.60;;;;;;5035956;28;20048;-66
2021/04/17 07:48:26;;;;;;;7.05;2.80;;;15.30;57.80;;;;;;5053930;28;20037;-66
2021/04/17 07:50:54;;;;;;;7.35;2.65;;;16.80;57.20;;;;;;5053583;28;20091;-65
2021/04/17 07:53:27;;;;;;;7.82;2.70;;;17.70;54.50;;;;;;5054114;28;20048;-66
2021/04/17 07:55:53;;;;;;;8.93;2.40;;;18.60;52.60;;;;;;5053626;28;20045;-66
2021/04/17 07:58:19;;;;;;;9.98;3.92;;;20.30;52.90;;;;;;5019392;28;20037;-67
2021/04/17 08:00:45;;;;;;;6.57;2.80;;;22.20;50.50;;;;;;5036420;28;20509;-67
2021/04/17 08:03:12;;;;;;;6.05;2.40;;;24.10;48.00;;;;;;5053675;28;20037;-68
2021/04/17 08:05:38;;;;;;;6.65;2.33;;;25.80;44.90;;;;;;5053800;28;20149;-68
2021/04/17 08:08:04;;;;;;;7.30;2.40;;;27.30;42.10;;;;;;5018738;28;20078;-66
2021/04/17 08:10:32;;;;;;;6.00;1.88;;;28.60;39.50;;;;;;5053404;28;20067;-68
2021/04/17 08:13:00;;;;;;;5.18;2.10;;;29.30;35.10;;;;;;5053484;28;20040;-68
2021/04/17 08:15:26;;;;;;;5.18;2.05;;;29.40;33.60;;;;;;5052883;28;20048;-68
2021/04/17 08:17:54;;;;;;;4.57;2.10;;;30.00;32.30;;;;;;5035113;28;20029;-67
2021/04/17 08:20:21;;;;;;;6.05;2.03;;;30.40;30.40;;;;;;5035210;28;20541;-67
2021/04/17 08:22:52;;;;;;;4.32;1.95;;;30.30;29.00;;;;;;5035109;28;20033;-67
2021/04/17 08:25:23;;;;;;;5.05;2.10;;;30.20;28.90;;;;;;5050504;28;20085;-68
2021/04/17 08:27:50;;;;;;;4.20;1.80;;;30.90;28.60;;;;;;5052226;28;20087;-67
2021/04/17 08:30:25;;;;;;;7.18;2.05;;;31.60;27.80;;;;;;5035192;28;20049;-68
2021/04/17 08:32:51;;;;;;;5.88;1.90;;;32.00;27.10;;;;;;5052383;28;20412;-68
2021/04/17 08:35:24;;;;;;;7.30;2.20;;;32.50;26.00;;;;;;5052792;28;20041;-67
2021/04/17 08:37:51;;;;;;;3.28;1.70;;;32.40;25.70;;;;;;5052208;28;20039;-67
2021/04/17 08:40:36;;;;;;;6.35;2.00;;;31.70;24.50;;;;;;5052748;28;20048;-67
2021/04/17 08:43:04;;;;;;;5.22;1.70;;;30.90;24.90;;;;;;5050081;28;20481;-69
2021/04/17 08:45:30;;;;;;;5.72;2.00;;;31.00;24.90;;;;;;5052741;28;20139;-68
2021/04/17 08:47:58;;;;;;;4.10;1.80;;;31.80;24.70;;;;;;5051957;28;20128;-68
2021/04/17 08:50:40;;;;;;;4.75;1.70;;;32.30;24.30;;;;;;5051881;28;20045;-69
2021/04/17 08:53:17;;;;;;;6.93;2.10;;;31.90;23.40;;;;;;5050351;28;20033;-68
2021/04/17 08:55:47;;;;;;;4.82;1.90;;;32.20;23.70;;;;;;5032471;28;20033;-68
2021/04/17 08:58:21;;;;;;;5.28;1.90;;;32.70;23.50;;;;;;5051809;28;20039;-68
2021/04/17 09:00:52;;;;;;;4.70;1.60;;;33.70;23.40;;;;;;5049493;28;20110;-69
2021/04/17 09:03:44;;;;;;;3.95;1.40;;;34.30;22.50;;;;;;5034055;28;20033;-69
2021/04/17 09:06:32;;;;;;;5.22;1.67;;;35.10;22.50;;;;;;5051097;28;20512;-68
2021/04/17 09:09:19;;;;;;;2.23;1.10;;;36.20;22.20;;;;;;5051690;28;20049;-65
2021/04/17 09:11:47;;;;;;;3.83;1.48;;;36.30;21.30;;;;;;5050058;28;20029;-66
2021/04/17 09:14:28;;;;;;;3.25;1.30;;;35.60;20.30;;;;;;5052252;28;20029;-65
2021/04/17 09:17:01;;;;;;;6.22;1.55;;;33.60;20.00;;;;;;5050828;28;20064;-64
2021/04/17 09:19:40;;;;;;;3.83;1.25;;;32.30;20.60;;;;;;5050327;28;20485;-64
2021/04/17 09:22:24;;;;;;;4.40;1.70;;;32.20;21.20;;;;;;5030801;28;20041;-65
2021/04/17 09:24:51;;;;;;;5.05;1.63;;;33.50;21.60;;;;;;5032623;28;20022;-65
2021/04/17 09:27:44;;;;;;;3.40;1.40;;;34.80;21.20;;;;;;5050487;28;20032;-65
2021/04/17 09:30:10;;;;;;;4.80;1.60;;;36.00;21.00;;;;;;5047847;28;20041;-65
2021/04/17 09:32:42;;;;;;;4.07;1.30;;;36.30;20.30;;;;;;5051789;28;20091;-65
2021/04/17 09:35:20;;;;;;;5.05;1.33;;;36.20;20.10;;;;;;5051410;28;20033;-64
2021/04/17 09:38:04;;;;;;;3.67;1.35;;;36.70;20.00;;;;;;5014654;28;20071;-64
2021/04/17 09:40:29;;;;;;;4.93;1.42;;;37.00;19.30;;;;;;5049689;28;20049;-64
2021/04/17 09:42:55;;;;;;;5.80;1.50;;;37.40;19.50;;;;;;5051758;28;20033;-64
2021/04/17 09:45:35;;;;;;;4.30;1.40;;;37.70;19.10;;;;;;5030291;28;20033;-64
2021/04/17 09:48:04;;;;;;;4.38;1.65;;;37.40;18.90;;;;;;5031142;28;20029;-64
2021/04/17 09:50:32;;;;;;;5.37;1.40;;;36.40;18.90;;;;;;5051230;28;20064;-64
2021/04/17 09:53:15;;;;;;;3.72;1.45;;;36.20;19.20;;;;;;5016650;28;20041;-64
2021/04/17 09:55:59;;;;;;;4.03;1.35;;;34.70;18.70;;;;;;5040567;28;20060;-65
2021/04/17 09:58:35;;;;;;;5.20;1.63;;;34.60;19.60;;;;;;5050378;28;20052;-64
2021/04/17 10:01:16;;;;;;;3.70;1.40;;;34.90;19.10;;;;;;5049734;28;20040;-64
2021/04/17 10:03:44;;;;;;;3.55;1.38;;;34.60;19.40;;;;;;5050900;28;20053;-63
2021/04/17 10:06:29;;;;;;;4.07;1.40;;;34.30;19.10;;;;;;5051163;28;20064;-64
2021/04/17 10:09:16;;;;;;;5.97;1.55;;;33.40;19.30;;;;;;5050191;28;20413;-63
2021/04/17 10:11:44;;;;;;;7.03;1.90;;;33.40;19.90;;;;;;5032975;28;20117;-63
2021/04/17 10:14:12;;;;;;;4.25;1.73;;;33.50;19.70;;;;;;5032729;28;20504;-64
2021/04/17 10:16:41;;;;;;;4.53;1.60;;;34.60;19.80;;;;;;5050544;28;20119;-64
2021/04/17 10:19:17;;;;;;;5.63;1.75;;;34.30;19.10;;;;;;5031321;28;20040;-64
2021/04/17 10:21:47;;;;;;;6.50;1.63;;;34.40;20.10;;;;;;5050086;28;20106;-65
2021/04/17 10:24:36;;;;;;;4.90;1.80;;;35.90;20.30;;;;;;5032604;28;20045;-64
2021/04/17 10:27:09;;;;;;;3.53;1.42;;;37.10;19.70;;;;;;5048745;28;20052;-66
2021/04/17 10:29:48;;;;;;;4.97;1.50;;;38.10;19.60;;;;;;5049903;28;20045;-67
2021/04/17 10:32:25;;;;;;;4.10;1.38;;;39.20;19.60;;;;;;5029920;28;20679;-66
2021/04/17 10:35:15;;;;;;;4.72;1.60;;;39.70;19.40;;;;;;5029100;28;20094;-66
2021/04/17 10:37:47;;;;;;;4.50;1.50;;;40.40;19.00;;;;;;5046643;28;20037;-65
2021/04/17 10:40:15;;;;;;;3.78;1.67;;;40.70;18.90;;;;;;5047233;28;20520;-66
2021/04/17 10:42:53;;;;;;;3.88;1.45;;;41.30;18.80;;;;;;5047890;28;20560;-64
2021/04/17 10:45:25;;;;;;;3.50;1.23;;;41.30;18.30;;;;;;5046769;28;20044;-64
2021/04/17 10:48:02;;;;;;;2.92;1.50;;;40.00;18.10;;;;;;5040837;28;20029;-64
2021/04/17 10:50:30;;;;;;;4.60;1.58;;;39.50;17.90;;;;;;5015807;28;20075;-65
2021/04/17 10:53:02;;;;;;;4.35;1.05;;;38.80;17.30;;;;;;5031326;28;20029;-65
2021/04/17 10:55:45;;;;;;;3.55;1.20;;;38.10;18.10;;;;;;5014985;28;20099;-65
2021/04/17 10:58:34;;;;;;;4.38;1.42;;;37.90;18.20;;;;;;5048473;28;20041;-65
2021/04/17 11:01:05;;;;;;;;;;;37.40;18.30;;;;;;5030819;28;20154;-65
2021/04/17 11:03:46;;;;;;;5.35;1.50;;;37.00;18.20;;;;;;5049570;28;19913;-65
2021/04/17 11:06:20;;;;;;;5.18;1.30;;;36.10;17.50;;;;;;5030813;28;20037;-64
2021/04/17 11:08:47;;;;;;;6.38;1.70;;;34.80;17.80;;;;;;5031429;28;20040;-65
2021/04/17 11:11:16;;;;;;;4.75;1.50;;;34.50;18.40;;;;;;5014077;28;20043;-68
2021/04/17 11:13:43;;;;;;;5.53;1.37;;;34.00;18.60;;;;;;5048714;28;20090;-68
2021/04/17 11:16:13;;;;;;;3.78;1.48;;;34.80;19.10;;;;;;5046713;28;20516;-68
2021/04/17 11:18:44;;;;;;;6.15;2.47;;;35.90;18.90;;;;;;5048437;28;20041;-68
2021/04/17 11:21:12;;;;;;;4.25;1.30;;;37.10;18.70;;;;;;5046769;28;20506;-68
2021/04/17 11:23:45;;;;;;;4.70;1.92;;;38.30;18.30;;;;;;5049126;28;20037;-68
2021/04/17 11:26:21;;;;;;;5.60;2.63;;;38.90;18.10;;;;;;5047047;28;20497;-68
2021/04/17 11:28:56;;;;;;;4.68;1.83;;;38.80;18.00;;;;;;5048241;28;20613;-68
2021/04/17 11:31:27;;;;;;;6.80;2.88;;;38.30;17.90;;;;;;5049436;28;20140;-68
2021/04/17 11:33:55;;;;;;;12.48;6.18;;;38.00;18.10;;;;;;5044914;28;20032;-68
2021/04/17 11:36:24;;;;;;;11.15;5.85;;;37.30;17.90;;;;;;5047089;28;20037;-69
2021/04/17 11:38:50;;;;;;;3.80;1.63;;;36.60;18.20;;;;;;5027117;28;20037;-67
2021/04/17 11:41:16;;;;;;;7.03;2.50;;;36.10;18.20;;;;;;5046081;28;20552;-67
2021/04/17 11:43:42;;;;;;;8.43;2.22;;;34.50;17.80;;;;;;5046821;28;20029;-67
2021/04/17 11:46:10;;;;;;;7.30;3.17;;;32.40;17.90;;;;;;5029949;28;20036;-66
2021/04/17 11:48:37;;;;;;;4.80;1.55;;;31.50;19.30;;;;;;5048118;28;20240;-67
2021/04/17 11:51:02;;;;;;;5.15;1.88;;;32.60;19.80;;;;;;5030383;28;20433;-67
2021/04/17 11:53:28;;;;;;;5.63;1.58;;;34.10;19.70;;;;;;5047064;28;20037;-67
2021/04/17 11:55:54;;;;;;;4.70;1.90;;;35.10;19.10;;;;;;5048087;28;20048;-67
2021/04/17 11:58:20;;;;;;;5.88;1.70;;;36.00;19.30;;;;;;5018565;28;20041;-67
2021/04/17 12:00:46;;;;;;;4.22;1.50;;;36.50;19.00;;;;;;5048339;28;20599;-67
2021/04/17 12:03:15;;;;;;;5.10;1.52;;;36.50;18.80;;;;;;5031612;28;20048;-67
2021/04/17 12:05:41;;;;;;;5.55;2.22;;;36.00;18.60;;;;;;5048649;28;20067;-67
2021/04/17 12:08:07;;;;;;;4.78;2.17;;;35.50;18.60;;;;;;5048652;28;20041;-67
2021/04/17 12:10:33;;;;;;;4.93;1.55;;;34.70;18.60;;;;;;5048952;28;20052;-66
2021/04/17 12:12:59;;;;;;;4.20;1.60;;;34.30;18.90;;;;;;5049364;28;20148;-67
2021/04/17 12:15:24;;;;;;;5.28;1.50;;;33.80;18.80;;;;;;5049517;28;20044;-68
2021/04/17 12:17:50;;;;;;;5.88;1.83;;;33.00;18.80;;;;;;5030375;28;20112;-64
2021/04/17 12:20:16;;;;;;;5.78;1.65;;;32.10;19.20;;;;;;5031443;28;20072;-64
2021/04/17 12:22:42;;;;;;;3.70;1.30;;;31.40;19.40;;;;;;5014584;28;20060;-64
2021/04/17 12:25:09;;;;;;;4.95;1.60;;;31.00;19.60;;;;;;5049774;28;20040;-63
2021/04/17 12:27:34;;;;;;;5.85;1.77;;;30.10;19.20;;;;;;5052019;28;20029;-64
2021/04/17 12:30:01;;;;;;;5.78;1.65;;;28.90;19.90;;;;;;5033613;28;20506;-63
2021/04/17 12:32:28;;;;;;;6.15;1.60;;;28.20;20.30;;;;;;5033462;28;20047;-63
2021/04/17 12:34:55;;;;;;;6.07;1.85;;;28.10;20.90;;;;;;5022577;28;20040;-64
2021/04/17 12:37:21;;;;;;;5.25;1.60;;;28.40;20.70;;;;;;5055075;28;20485;-63
2021/04/17 12:39:47;;;;;;;4.70;1.73;;;28.40;20.60;;;;;;5036771;28;20046;-63
2021/04/17 12:42:12;;;;;;;7.38;1.60;;;28.40;20.90;;;;;;5061463;28;20056;-63
2021/04/17 12:44:38;;;;;;;7.60;1.77;;;28.60;21.10;;;;;;5063550;28;20071;-63
2021/04/17 12:47:04;;;;;;;5.80;1.65;;;29.10;21.50;;;;;;5062536;28;20509;-63
2021/04/17 12:49:30;;;;;;;7.53;1.92;;;29.50;21.10;;;;;;5048364;28;20523;-64
2021/04/17 12:51:55;;;;;;;7.70;1.77;;;29.60;21.00;;;;;;5054315;28;20033;-63
2021/04/17 12:54:21;;;;;;;7.75;1.60;;;29.50;20.70;;;;;;5068058;28;20043;-64
2021/04/17 12:56:47;;;;;;;3.83;1.60;;;29.00;20.80;;;;;;5034150;28;20072;-65
2021/04/17 12:59:12;;;;;;;6.43;1.70;;;28.40;20.90;;;;;;5033485;28;20095;-65
2021/04/17 13:01:38;;;;;;;5.93;1.83;;;27.80;21.00;;;;;;5033564;28;20039;-63